Time;durP1;ratioP1;P1;durP2;ratioP2;P2;SDS_P1;SDS_P2;PMS_P1;PMS_P2;Temp;Humidity;BMP_temperature;BMP_pressure;BME280_temperature;BME280_humidity;BME280_pressure;Samples;Min_cycle;Max_cycle;Signal;HPM_P1;HPM_P2
2023/06/17 00:00:06;;;;;;;30.93;27.50;;;;;;;15.79;100.00;101515.72;5065260;28;20208;-71
2023/06/17 00:02:34;;;;;;;36.87;27.37;;;;;;;15.80;100.00;101507.13;5063246;28;20205;-71
2023/06/17 00:05:00;;;;;;;33.53;28.10;;;;;;;15.79;100.00;101494.22;5062101;28;20220;-71
2023/06/17 00:07:25;;;;;;;33.87;28.87;;;;;;;15.74;100.00;101499.31;5066125;28;21020;-71
2023/06/17 00:09:52;;;;;;;33.10;27.33;;;;;;;15.75;100.00;101497.63;5065457;28;20690;-71
2023/06/17 00:12:18;;;;;;;34.40;27.40;;;;;;;15.73;100.00;101499.31;5064250;28;20224;-71
2023/06/17 00:14:43;;;;;;;34.17;29.10;;;;;;;15.69;100.00;101495.84;5061348;28;20312;-71
2023/06/17 00:17:09;;;;;;;31.03;26.60;;;;;;;15.68;100.00;101499.28;5063920;28;20197;-71
2023/06/17 00:19:35;;;;;;;33.93;27.33;;;;;;;15.66;100.00;101495.81;5059895;28;20383;-71
2023/06/17 00:22:01;;;;;;;33.03;27.80;;;;;;;15.57;100.00;101493.13;5062292;28;20197;-71
2023/06/17 00:24:27;;;;;;;31.47;25.27;;;;;;;15.63;100.00;101493.22;5064059;28;20580;-71
2023/06/17 00:26:52;;;;;;;31.00;25.13;;;;;;;15.59;100.00;101501.78;5062466;28;20220;-71
2023/06/17 00:29:17;;;;;;;28.87;25.73;;;;;;;15.58;100.00;101496.59;5064099;28;20225;-71
2023/06/17 00:31:43;;;;;;;30.87;26.07;;;;;;;15.61;100.00;101497.47;5057698;28;20224;-71
2023/06/17 00:34:08;;;;;;;32.53;26.10;;;;;;;15.61;100.00;101491.47;5060515;28;20247;-71
2023/06/17 00:36:34;;;;;;;31.83;27.13;;;;;;;15.52;100.00;101501.69;5062708;28;20307;-71
2023/06/17 00:39:00;;;;;;;35.93;28.03;;;;;;;15.57;100.00;101512.94;5064616;28;20650;-71
2023/06/17 00:41:26;;;;;;;41.07;30.00;;;;;;;15.63;100.00;101511.28;5060650;28;20203;-71
2023/06/17 00:43:51;;;;;;;34.57;29.40;;;;;;;15.64;100.00;101501.81;5063338;28;20713;-71
2023/06/17 00:46:40;;;;;;;34.60;29.33;;;;;;;15.68;100.00;101503.56;5059077;28;20197;-71
2023/06/17 00:49:09;;;;;;;34.60;28.77;;;;;;;15.67;100.00;101504.44;5056246;28;20308;-71
2023/06/17 00:51:36;;;;;;;30.00;26.10;;;;;;;15.66;100.00;101498.38;5059491;28;20628;-71
2023/06/17 00:54:03;;;;;;;36.63;28.47;;;;;;;15.69;100.00;101498.41;5063492;28;20209;-71
2023/06/17 00:56:31;;;;;;;34.37;29.23;;;;;;;15.72;100.00;101492.41;5079918;28;20212;-71
2023/06/17 00:58:57;;;;;;;38.57;29.60;;;;;;;15.75;100.00;101490.72;5065588;28;20207;-71
2023/06/17 01:01:26;;;;;;;35.77;30.33;;;;;;;15.75;100.00;101489.88;5066999;28;20188;-71
2023/06/17 01:03:56;;;;;;;34.10;29.70;;;;;;;15.78;100.00;101488.19;5062295;28;20217;-71
2023/06/17 01:06:52;;;;;;;32.87;26.83;;;;;;;15.81;100.00;101495.97;5059623;28;20339;-71
2023/06/17 01:09:27;;;;;;;34.83;28.30;;;;;;;15.84;100.00;101495.97;5037558;28;20207;-71
2023/06/17 01:11:55;;;;;;;32.93;27.50;;;;;;;15.85;100.00;101489.97;5064149;28;20729;-71
2023/06/17 01:14:21;;;;;;;36.27;27.37;;;;;;;15.84;100.00;101482.22;5056157;28;20296;-71
2023/06/17 01:16:50;;;;;;;32.87;27.47;;;;;;;15.82;100.00;101487.34;5059124;28;20628;-71
2023/06/17 01:19:24;;;;;;;31.27;27.57;;;;;;;15.80;100.00;101493.34;5060012;28;20212;-71
2023/06/17 01:21:53;;;;;;;32.17;26.57;;;;;;;15.83;100.00;101486.50;5059926;28;20205;-71
2023/06/17 01:24:29;;;;;;;31.13;26.47;;;;;;;15.84;100.00;101485.63;5057831;28;20201;-71
2023/06/17 01:26:59;;;;;;;34.57;26.23;;;;;;;15.88;100.00;101478.81;5059976;28;20315;-71
2023/06/17 01:29:37;;;;;;;32.67;26.60;;;;;;;15.92;100.00;101485.69;5060818;28;20254;-71
2023/06/17 01:32:05;;;;;;;38.73;27.87;;;;;;;15.94;100.00;101482.28;5062992;28;20200;-71
2023/06/17 01:34:39;;;;;;;32.90;26.20;;;;;;;15.95;100.00;101475.41;5060934;28;20617;-71
2023/06/17 01:37:09;;;;;;;33.77;27.63;;;;;;;15.96;100.00;101474.53;5061323;28;20188;-71
2023/06/17 01:39:37;;;;;;;34.03;26.90;;;;;;;15.97;100.00;101474.56;5083887;28;20196;-71
2023/06/17 01:42:07;;;;;;;35.47;27.10;;;;;;;15.99;100.00;101470.28;5058588;28;20239;-71
2023/06/17 01:44:34;;;;;;;34.00;26.60;;;;;;;16.01;100.00;101468.56;5066836;28;20253;-71
2023/06/17 01:47:00;;;;;;;35.83;27.10;;;;;;;16.04;100.00;101472.88;5063875;28;20209;-71
2023/06/17 01:49:26;;;;;;;38.63;27.67;;;;;;;16.04;100.00;101476.34;5062123;28;20185;-71
2023/06/17 01:51:51;;;;;;;36.70;27.07;;;;;;;16.08;100.00;101474.63;5059749;28;20189;-72
2023/06/17 01:54:17;;;;;;;37.33;28.47;;;;;;;16.05;100.00;101480.66;5068051;28;20612;-72
2023/06/17 01:56:43;;;;;;;38.47;27.87;;;;;;;16.08;100.00;101474.63;5063468;28;20806;-71
2023/06/17 01:59:08;;;;;;;34.67;26.83;;;;;;;16.06;100.00;101469.44;5062665;28;20228;-71
2023/06/17 02:01:33;;;;;;;38.93;27.63;;;;;;;16.07;100.00;101466.00;5068378;28;20829;-71
2023/06/17 02:03:59;;;;;;;38.07;29.00;;;;;;;16.10;100.00;101468.63;5051288;28;20247;-71
2023/06/17 02:06:24;;;;;;;37.53;28.27;;;;;;;16.13;100.00;101468.66;5062931;28;20690;-71
2023/06/17 02:08:50;;;;;;;37.37;27.40;;;;;;;16.14;100.00;101472.09;5082964;28;20197;-71
2023/06/17 02:11:15;;;;;;;36.63;27.00;;;;;;;16.16;100.00;101468.66;5063121;28;20212;-71
2023/06/17 02:13:41;;;;;;;38.10;28.57;;;;;;;16.17;100.00;101456.63;5065733;28;20212;-72
2023/06/17 02:16:07;;;;;;;38.57;28.40;;;;;;;16.19;100.00;101468.69;5061239;28;20199;-71
2023/06/17 02:18:33;;;;;;;44.27;29.57;;;;;;;16.19;100.00;101467.81;5046156;28;20556;-71
2023/06/17 02:21:02;;;;;;;41.67;28.47;;;;;;;16.20;100.00;101466.94;5079162;28;20189;-71
2023/06/17 02:23:28;;;;;;;42.40;28.30;;;;;;;16.20;100.00;101465.25;5059913;28;20189;-71
2023/06/17 02:25:55;;;;;;;40.63;30.63;;;;;;;16.19;100.00;101462.63;5066204;28;20197;-71
2023/06/17 02:28:20;;;;;;;38.87;29.90;;;;;;;16.22;100.00;101470.44;5063841;28;20206;-71
2023/06/17 02:30:46;;;;;;;41.80;29.10;;;;;;;16.23;100.00;101470.44;5068341;28;20740;-71
2023/06/17 02:33:12;;;;;;;39.33;28.27;;;;;;;16.24;100.00;101472.16;5056904;28;20189;-71
2023/06/17 02:35:38;;;;;;;34.73;28.30;;;;;;;16.25;100.00;101475.63;5072218;28;20221;-71
2023/06/17 02:38:03;;;;;;;42.47;32.13;;;;;;;16.25;100.00;101471.31;5050383;28;20189;-71
2023/06/17 02:40:28;;;;;;;47.03;32.93;;;;;;;16.23;100.00;101474.72;5064286;28;20189;-71
2023/06/17 02:42:54;;;;;;;43.57;32.67;;;;;;;16.21;100.00;101472.13;5060144;28;20283;-70
2023/06/17 02:45:19;;;;;;;40.77;30.70;;;;;;;16.25;100.00;101475.63;5059410;28;20320;-70
2023/06/17 02:47:45;;;;;;;40.77;30.73;;;;;;;16.22;100.00;101466.13;5049395;28;20209;-70
2023/06/17 02:50:11;;;;;;;45.67;29.93;;;;;;;16.23;100.00;101467.84;5060683;28;20224;-70
2023/06/17 02:52:37;;;;;;;39.40;29.77;;;;;;;16.24;100.00;101467.00;5063563;28;20201;-70
2023/06/17 02:55:05;;;;;;;37.00;28.23;;;;;;;16.26;100.00;101464.44;5063782;28;20236;-70
2023/06/17 02:57:30;;;;;;;42.07;29.53;;;;;;;16.27;100.00;101459.28;5060965;28;20196;-70
2023/06/17 02:59:56;;;;;;;39.50;28.40;;;;;;;16.30;100.00;101458.44;5059280;28;20205;-71
2023/06/17 03:02:21;;;;;;;39.23;28.60;;;;;;;16.31;100.00;101455.81;5065336;28;20202;-70
2023/06/17 03:04:48;;;;;;;39.17;28.20;;;;;;;16.32;100.00;101454.13;5062003;28;20947;-70
2023/06/17 03:07:15;;;;;;;43.33;30.57;;;;;;;16.32;100.00;101454.13;5064153;28;20208;-70
2023/06/17 03:09:42;;;;;;;43.27;28.77;;;;;;;16.32;100.00;101461.88;5046971;28;20621;-70
2023/06/17 03:12:08;;;;;;;40.90;29.37;;;;;;;16.32;100.00;101449.81;5062138;28;20189;-70
2023/06/17 03:14:33;;;;;;;39.20;30.10;;;;;;;16.35;100.00;101446.38;5062747;28;20562;-70
2023/06/17 03:17:02;;;;;;;39.67;30.00;;;;;;;16.37;100.00;101449.84;5045878;28;20193;-70
2023/06/17 03:19:29;;;;;;;36.70;30.30;;;;;;;16.38;100.00;101448.97;5062892;28;20200;-70
2023/06/17 03:21:54;;;;;;;38.93;29.83;;;;;;;16.39;100.00;101450.72;5059524;28;20197;-70
2023/06/17 03:24:23;;;;;;;43.17;29.57;;;;;;;16.40;100.00;101455.06;5059962;28;20553;-70
2023/06/17 03:26:49;;;;;;;38.40;30.00;;;;;;;16.40;100.00;101455.91;5061987;28;20201;-70
2023/06/17 03:29:15;;;;;;;39.47;30.87;;;;;;;16.42;100.00;101455.94;5061589;28;20773;-70
2023/06/17 03:31:40;;;;;;;43.23;31.53;;;;;;;16.44;100.00;101456.81;5065853;28;20267;-69
2023/06/17 03:34:07;;;;;;;44.47;31.70;;;;;;;16.44;100.00;101457.66;5083789;28;20217;-70
2023/06/17 03:36:33;;;;;;;42.53;31.93;;;;;;;16.47;100.00;101459.41;5057954;28;20185;-71
2023/06/17 03:38:59;;;;;;;45.63;32.43;;;;;;;16.49;100.00;101457.69;5063052;28;20199;-70
2023/06/17 03:41:28;;;;;;;56.37;35.37;;;;;;;16.49;100.00;101457.69;5056258;28;20219;-70
2023/06/17 03:43:54;;;;;;;43.20;34.37;;;;;;;16.50;100.00;101452.53;5061923;28;20740;-71
2023/06/17 03:46:20;;;;;;;50.33;33.77;;;;;;;16.53;100.00;101455.13;5057312;28;20251;-70
2023/06/17 03:48:46;;;;;;;52.10;37.23;;;;;;;16.54;100.00;101451.69;5073802;28;20198;-70
2023/06/17 03:51:12;;;;;;;54.80;37.70;;;;;;;16.56;100.00;101460.31;5057682;28;20262;-70
2023/06/17 03:53:38;;;;;;;55.13;37.77;;;;;;;16.59;100.00;101462.06;5062756;28;20300;-70
2023/06/17 03:56:03;;;;;;;51.17;37.50;;;;;;;16.62;100.00;101462.09;5059369;28;20292;-70
2023/06/17 03:58:31;;;;;;;57.40;37.43;;;;;;;16.64;100.00;101453.47;5058250;28;20190;-70
2023/06/17 04:00:57;;;;;;;49.97;38.07;;;;;;;16.68;100.00;101456.94;5062925;28;20211;-70
2023/06/17 04:03:24;;;;;;;52.67;38.63;;;;;;;16.70;100.00;101458.66;5057559;28;20666;-70
2023/06/17 04:05:51;;;;;;;51.80;39.37;;;;;;;16.72;100.00;101461.25;5060949;28;20205;-70
2023/06/17 04:08:18;;;;;;;59.47;42.57;;;;;;;16.70;100.00;101455.19;5059204;28;20618;-70
2023/06/17 04:10:44;;;;;;;64.07;45.20;;;;;;;16.76;100.00;101455.25;5065456;28;20211;-70
2023/06/17 04:13:09;;;;;;;58.47;41.13;;;;;;;16.77;100.00;101450.06;5044147;28;20662;-70
2023/06/17 04:15:35;;;;;;;59.37;41.37;;;;;;;16.76;100.00;101453.50;5058200;28;20736;-70
2023/06/17 04:18:02;;;;;;;62.17;44.20;;;;;;;16.78;100.00;101456.09;5062174;28;20193;-70
2023/06/17 04:20:28;;;;;;;65.27;43.83;;;;;;;16.80;100.00;101459.59;5062045;28;20196;-71
2023/06/17 04:22:54;;;;;;;68.40;45.03;;;;;;;16.81;100.00;101453.53;5061668;28;20204;-70
2023/06/17 04:25:20;;;;;;;71.67;44.23;;;;;;;16.82;100.00;101458.72;5060034;28;20217;-70
2023/06/17 04:27:48;;;;;;;71.30;46.53;;;;;;;16.82;100.00;101458.72;5075608;28;20278;-70
2023/06/17 04:30:15;;;;;;;69.43;46.13;;;;;;;16.84;100.00;101458.72;5056111;28;20196;-70
2023/06/17 04:32:42;;;;;;;68.17;45.70;;;;;;;16.83;100.00;101456.97;5063110;28;20644;-70
2023/06/17 04:35:10;;;;;;;66.90;48.07;;;;;;;16.84;100.00;101462.16;5074259;28;20208;-70
2023/06/17 04:37:43;;;;;;;70.87;47.97;;;;;;;16.88;100.00;101453.56;5077880;28;20197;-70
2023/06/17 04:40:11;;;;;;;66.70;47.50;;;;;;;16.94;100.00;101463.09;5060825;28;20814;-70
2023/06/17 04:42:40;;;;;;;69.63;48.20;;;;;;;16.97;100.00;101458.78;5057123;28;20202;-70
2023/06/17 04:45:08;;;;;;;67.20;48.80;;;;;;;16.95;100.00;101460.47;5061753;28;20709;-70
2023/06/17 04:47:35;;;;;;;67.40;45.40;;;;;;;16.95;100.00;101460.47;5057715;28;20220;-70
2023/06/17 04:50:01;;;;;;;65.97;47.10;;;;;;;16.98;100.00;101460.50;5064007;28;20670;-70
2023/06/17 04:52:29;;;;;;;74.23;49.20;;;;;;;17.00;100.00;101458.75;5058980;28;20782;-70
2023/06/17 04:54:56;;;;;;;76.23;50.03;;;;;;;17.01;100.00;101464.81;5074534;28;21270;-70
2023/06/17 04:57:22;;;;;;;69.77;49.60;;;;;;;17.05;100.00;101464.84;5057520;28;20197;-70
2023/06/17 04:59:50;;;;;;;71.40;47.83;;;;;;;17.06;100.00;101463.09;5065865;28;20181;-70
2023/06/17 05:02:15;;;;;;;63.07;46.10;;;;;;;17.08;100.00;101461.41;5059026;28;20192;-70
2023/06/17 05:04:41;;;;;;;67.83;46.63;;;;;;;17.07;100.00;101462.25;5060036;28;20273;-69
2023/06/17 05:07:06;;;;;;;74.37;48.40;;;;;;;17.12;100.00;101463.13;5078629;28;20225;-69
2023/06/17 05:09:33;;;;;;;70.57;50.43;;;;;;;17.13;100.00;101463.13;5060758;28;20197;-70
2023/06/17 05:11:59;;;;;;;69.27;48.20;;;;;;;17.11;100.00;101466.56;5063710;28;20193;-70
2023/06/17 05:14:25;;;;;;;71.37;48.40;;;;;;;17.12;100.00;101457.94;5046113;28;20247;-69
2023/06/17 05:16:50;;;;;;;69.60;48.03;;;;;;;17.16;100.00;101460.56;5061837;28;20185;-70
2023/06/17 05:19:16;;;;;;;64.97;46.50;;;;;;;17.20;100.00;101466.59;5062529;28;20678;-70
2023/06/17 05:21:41;;;;;;;69.37;47.60;;;;;;;17.22;100.00;101457.97;5064948;28;20662;-70
2023/06/17 05:24:07;;;;;;;60.53;43.80;;;;;;;17.31;100.00;101454.56;5069172;28;20213;-70
2023/06/17 05:26:32;;;;;;;61.10;43.60;;;;;;;17.35;100.00;101458.84;5065292;28;20245;-70
2023/06/17 05:28:57;;;;;;;63.93;43.53;;;;;;;17.35;100.00;101462.31;5061803;28;20188;-70
2023/06/17 05:31:23;;;;;;;57.07;42.30;;;;;;;17.40;100.00;101463.22;5045901;28;20203;-70
2023/06/17 05:33:49;;;;;;;62.07;43.67;;;;;;;17.47;100.00;101466.69;5065950;28;20220;-70
2023/06/17 05:36:14;;;;;;;60.47;40.97;;;;;;;17.49;100.00;101468.41;5067959;28;20204;-70
2023/06/17 05:38:40;;;;;;;54.97;40.23;;;;;;;17.54;100.00;101463.25;5066856;28;20193;-69
2023/06/17 05:41:06;;;;;;;51.57;37.63;;;;;;;17.57;100.00;101468.41;5065424;28;20650;-70
2023/06/17 05:43:32;;;;;;;53.60;39.63;;;;;;;17.61;100.00;101472.75;5062025;28;20217;-70
2023/06/17 05:45:58;;;;;;;61.10;43.20;;;;;;;17.64;100.00;101465.00;5061512;28;20193;-70
2023/06/17 05:48:24;;;;;;;55.93;41.93;;;;;;;17.68;100.00;101477.09;5058067;28;20217;-70
2023/06/17 05:50:49;;;;;;;59.47;43.57;;;;;;;17.76;100.00;101476.22;5069615;28;20219;-70
2023/06/17 05:53:15;;;;;;;54.43;41.13;;;;;;;17.81;100.00;101466.72;5065975;28;20262;-70
2023/06/17 05:55:41;;;;;;;52.17;39.83;;;;;;;17.81;100.00;101468.44;5048115;28;20213;-70
2023/06/17 05:58:08;;;;;;;54.90;39.63;;;;;;;17.80;100.00;101470.16;5064328;28;20250;-70
2023/06/17 06:00:35;;;;;;;53.63;37.47;;;;;;;17.80;100.00;101479.66;5060993;28;20186;-70
2023/06/17 06:03:00;;;;;;;46.83;37.00;;;;;;;17.81;100.00;101474.47;5065780;28;20208;-70
2023/06/17 06:05:27;;;;;;;52.97;39.77;;;;;;;17.85;100.00;101477.94;5066350;28;20217;-71
2023/06/17 06:07:52;;;;;;;61.30;44.40;;;;;;;17.85;100.00;101477.94;5068344;28;20216;-70
2023/06/17 06:10:18;;;;;;;59.80;44.63;;;;;;;17.84;100.00;101487.44;5063665;28;20196;-70
2023/06/17 06:12:50;;;;;;;58.93;42.53;;;;;;;17.90;100.00;101492.63;5080301;28;20232;-71
2023/06/17 06:15:15;;;;;;;55.20;43.70;;;;;;;17.92;100.00;101492.63;5058728;28;20263;-70
2023/06/17 06:17:41;;;;;;;58.70;44.63;;;;;;;17.93;100.00;101487.47;5067146;28;20200;-71
2023/06/17 06:20:06;;;;;;;64.20;47.37;;;;;;;17.95;100.00;101493.50;5068263;28;20223;-71
2023/06/17 06:22:33;;;;;;;62.77;47.37;;;;;;;17.90;100.00;101492.63;5065754;28;20193;-71
2023/06/17 06:24:58;;;;;;;57.27;46.80;;;;;;;17.88;100.00;101501.28;5065428;28;20221;-71
2023/06/17 06:27:24;;;;;;;61.90;46.83;;;;;;;17.92;100.00;101498.66;5063200;28;20221;-71
2023/06/17 06:29:49;;;;;;;61.83;48.23;;;;;;;17.94;100.00;101496.94;5080156;28;20200;-71
2023/06/17 06:32:15;;;;;;;62.50;46.83;;;;;;;17.93;100.00;101500.41;5062361;28;20235;-71
2023/06/17 06:34:41;;;;;;;58.80;45.70;;;;;;;17.97;100.00;101494.34;5061683;28;23014;-70
2023/06/17 06:37:07;;;;;;;63.83;49.30;;;;;;;18.04;100.00;101498.66;5068452;28;20189;-71
2023/06/17 06:39:34;;;;;;;64.57;50.43;;;;;;;18.07;100.00;101509.06;5063887;28;20189;-71
2023/06/17 06:42:00;;;;;;;65.87;51.47;;;;;;;18.14;100.00;101504.72;5065078;28;20193;-70
2023/06/17 06:44:44;;;;;;;65.97;49.13;;;;;;;18.16;100.00;101503.84;5062869;28;20645;-70
2023/06/17 06:47:11;;;;;;;64.43;50.00;;;;;;;18.20;100.00;101502.13;5064438;28;20217;-70
2023/06/17 06:49:37;;;;;;;61.73;49.80;;;;;;;18.23;100.00;101505.56;5048617;28;20197;-70
2023/06/17 06:52:03;;;;;;;59.27;47.60;;;;;;;18.33;100.00;101507.31;5062760;28;20831;-70
2023/06/17 06:54:29;;;;;;;61.13;46.33;;;;;;;18.37;100.00;101505.59;5059980;28;20213;-70
2023/06/17 06:56:55;;;;;;;57.97;46.10;;;;;;;18.44;100.00;101512.50;5066210;28;20185;-69
2023/06/17 06:59:21;;;;;;;61.07;45.27;;;;;;;18.46;100.00;101508.16;5058828;28;20197;-70
2023/06/17 07:01:49;;;;;;;59.43;46.00;;;;;;;18.49;100.00;101513.34;5052549;28;20291;-70
2023/06/17 07:04:15;;;;;;;59.53;47.00;;;;;;;18.49;100.00;101513.34;5078054;28;20303;-70
2023/06/17 07:06:40;;;;;;;63.70;48.20;;;;;;;18.25;100.00;101515.94;5065277;28;20256;-69
2023/06/17 07:09:10;;;;;;;60.17;46.77;;;;;;;18.39;100.00;101517.69;5061568;28;20193;-70
2023/06/17 07:11:35;;;;;;;56.20;45.23;;;;;;;18.52;100.00;101513.34;5047448;28;20708;-70
2023/06/17 07:14:01;;;;;;;60.43;46.33;;;;;;;18.55;100.00;101515.91;5057674;28;20283;-70
2023/06/17 07:16:27;;;;;;;59.90;46.40;;;;;;;18.53;100.00;101528.03;5063670;28;20181;-72
2023/06/17 07:18:53;;;;;;;58.70;45.57;;;;;;;18.64;100.00;101527.16;5080569;28;20224;-70
2023/06/17 07:21:18;;;;;;;60.10;47.70;;;;;;;18.70;100.00;101518.50;5065532;28;20262;-71
2023/06/17 07:23:44;;;;;;;60.53;46.70;;;;;;;18.77;100.00;101523.66;5065841;28;20607;-70
2023/06/17 07:26:09;;;;;;;56.03;45.93;;;;;;;18.81;100.00;101522.78;5060409;28;20245;-70
2023/06/17 07:28:35;;;;;;;58.37;46.03;;;;;;;18.91;100.00;101524.47;5061313;28;20292;-70
2023/06/17 07:31:00;;;;;;;57.30;46.23;;;;;;;19.01;100.00;101520.97;5065279;28;20715;-71
2023/06/17 07:33:26;;;;;;;57.60;46.50;;;;;;;19.05;100.00;101521.81;5060982;28;20200;-70
2023/06/17 07:35:52;;;;;;;55.47;45.60;;;;;;;19.13;100.00;101527.84;5053719;28;20193;-71
2023/06/17 07:38:17;;;;;;;59.00;45.00;;;;;;;19.16;100.00;101533.03;5056398;28;20239;-70
2023/06/17 07:40:46;;;;;;;57.37;46.67;;;;;;;19.14;100.00;101525.25;5079200;28;20186;-70
2023/06/17 07:43:12;;;;;;;59.53;43.70;;;;;;;19.23;100.00;101530.44;5059573;28;20201;-71
2023/06/17 07:45:38;;;;;;;56.93;43.97;;;;;;;19.28;100.00;101525.19;5059094;28;20267;-71
2023/06/17 07:48:03;;;;;;;57.17;43.87;;;;;;;19.34;100.00;101526.03;5068669;28;20221;-71
2023/06/17 07:50:29;;;;;;;56.80;41.93;;;;;;;19.45;100.00;101524.25;5065228;28;20251;-71
2023/06/17 07:52:54;;;;;;;53.00;42.70;;;;;;;19.53;100.00;101522.44;5064536;28;20200;-72
2023/06/17 07:55:21;;;;;;;48.40;39.70;;;;;;;19.65;100.00;101518.91;5060608;28;20221;-71
2023/06/17 07:57:47;;;;;;;45.63;36.33;;;;;;;19.70;100.00;101515.41;5063903;28;20200;-71
2023/06/17 08:00:13;;;;;;;44.87;38.67;;;;;;;19.74;100.00;101511.91;5060826;28;20193;-71
2023/06/17 08:02:42;;;;;;;52.80;40.13;;;;;;;19.81;100.00;101517.94;5065677;28;20975;-71
2023/06/17 08:05:08;;;;;;;48.83;38.83;;;;;;;19.86;100.00;101508.38;5066165;28;20577;-70
2023/06/17 08:07:34;;;;;;;44.47;37.10;;;;;;;19.75;100.00;101507.56;5062328;28;20605;-72
2023/06/17 08:09:59;;;;;;;46.07;36.93;;;;;;;19.90;100.00;101520.47;5065030;28;20200;-72
2023/06/17 08:12:25;;;;;;;41.83;34.77;;;;;;;20.07;100.00;101511.66;5061927;28;20200;-72
2023/06/17 08:14:51;;;;;;;47.77;34.83;;;;;;;20.20;100.00;101508.09;5056755;28;20293;-71
2023/06/17 08:17:17;;;;;;;41.77;34.17;;;;;;;20.34;100.00;101503.63;5066002;28;20200;-71
2023/06/17 08:19:42;;;;;;;39.00;33.53;;;;;;;20.45;100.00;101506.13;5058290;28;20713;-71
2023/06/17 08:22:08;;;;;;;45.33;35.63;;;;;;;20.52;100.00;101508.66;5064029;28;20193;-71
2023/06/17 08:24:34;;;;;;;40.87;34.20;;;;;;;20.53;100.00;101501.69;5061935;28;20268;-71
2023/06/17 08:26:59;;;;;;;42.23;33.97;;;;;;;20.34;100.00;101516.66;5063041;28;20217;-71
2023/06/17 08:29:25;;;;;;;41.60;33.17;;;;;;;20.34;100.00;101511.44;5060435;28;20242;-71
2023/06/17 08:31:52;;;;;;;43.03;33.33;;;;;;;20.37;100.00;101507.94;5067695;28;20662;-71
2023/06/17 08:34:19;;;;;;;47.83;36.40;;;;;;;20.34;100.00;101513.16;5066016;28;20220;-71
2023/06/17 08:36:49;;;;;;;48.37;35.27;;;;;;;20.38;100.00;101514.88;5063019;28;20263;-71
2023/06/17 08:39:15;;;;;;;39.53;32.17;;;;;;;20.30;100.00;101512.34;5062271;28;20189;-71
2023/06/17 08:41:42;;;;;;;42.63;34.27;;;;;;;20.12;100.00;101519.44;5056348;28;20630;-72
2023/06/17 08:44:11;;;;;;;38.10;31.23;;;;;;;20.24;100.00;101519.34;5055897;28;20209;-70
2023/06/17 08:46:37;;;;;;;45.57;33.20;;;;;;;20.25;100.00;101519.34;5062075;28;20585;-70
2023/06/17 08:49:03;;;;;;;38.60;33.43;;;;;;;20.21;100.00;101514.16;5068397;28;20208;-71
2023/06/17 08:51:29;;;;;;;47.30;37.63;;;;;;;19.92;100.00;101514.38;5062450;28;20193;-71
2023/06/17 08:53:56;;;;;;;50.17;41.90;;;;;;;19.63;100.00;101512.88;5061340;28;20697;-73
2023/06/17 08:56:22;;;;;;;56.20;39.93;;;;;;;19.87;100.00;101518.75;5058900;28;20198;-73
2023/06/17 08:58:49;;;;;;;55.63;42.13;;;;;;;19.80;100.00;101514.47;5063851;28;20193;-72
2023/06/17 09:01:16;;;;;;;50.30;39.87;;;;;;;19.90;100.00;101517.88;5066967;28;20274;-71
2023/06/17 09:03:42;;;;;;;51.90;41.80;;;;;;;19.83;100.00;101511.84;5065190;28;20638;-72
2023/06/17 09:06:28;;;;;;;46.50;39.43;;;;;;;19.99;100.00;101510.00;5058208;28;20824;-72
2023/06/17 09:08:56;;;;;;;49.60;39.93;;;;;;;19.85;100.00;101511.84;5064356;28;20247;-72
2023/06/17 09:11:22;;;;;;;54.87;39.70;;;;;;;20.10;100.00;101513.41;5058384;28;20246;-72
2023/06/17 09:13:54;;;;;;;49.43;38.53;;;;;;;20.05;100.00;101517.75;5059306;28;20228;-71
2023/06/17 09:16:35;;;;;;;48.03;36.83;;;;;;;20.48;100.00;101509.56;5062850;28;20192;-71
2023/06/17 09:19:04;;;;;;;46.50;37.07;;;;;;;20.40;100.00;101515.72;5059601;28;20251;-72
2023/06/17 09:21:30;;;;;;;43.70;35.03;;;;;;;20.54;100.00;101506.03;5057410;28;20201;-72
2023/06/17 09:24:00;;;;;;;44.27;35.07;;;;;;;20.69;100.00;101511.06;5061260;28;20213;-71
2023/06/17 09:26:29;;;;;;;43.67;35.13;;;;;;;20.96;100.00;101506.44;5061343;28;20197;-71
2023/06/17 09:29:02;;;;;;;45.57;34.80;;;;;;;21.19;100.00;101504.38;5063404;28;20721;-70
2023/06/17 09:31:29;;;;;;;42.20;34.67;;;;;;;21.28;100.00;101506.88;5071013;28;20186;-70
2023/06/17 09:33:54;;;;;;;42.83;35.00;;;;;;;21.14;100.00;101511.41;5065285;28;20217;-70
2023/06/17 09:36:21;;;;;;;43.97;36.67;;;;;;;21.17;100.00;101516.59;5063465;28;20191;-70
2023/06/17 09:38:47;;;;;;;41.33;35.87;;;;;;;21.58;100.00;101509.06;5060389;28;20232;-70
2023/06/17 09:41:18;;;;;;;44.73;35.43;;;;;;;21.94;100.00;101513.75;5059967;28;20189;-70
2023/06/17 09:43:53;;;;;;;39.20;35.07;;;;;;;22.53;100.00;101494.44;5058860;28;20259;-70
2023/06/17 09:46:35;;;;;;;40.03;32.47;;;;;;;22.67;100.00;101487.22;5062856;28;20201;-70
2023/06/17 09:49:09;;;;;;;38.23;34.13;;;;;;;22.61;100.00;101469.03;5061835;28;20611;-70
2023/06/17 09:51:38;;;;;;;41.17;34.23;;;;;;;22.77;100.00;101486.13;5062499;28;20287;-70
2023/06/17 09:54:07;;;;;;;36.30;32.25;;;;;;;22.77;100.00;101473.06;5062490;28;20731;-70
2023/06/17 09:56:34;;;;;;;37.47;32.17;;;;;;;23.19;100.00;101500.06;5058486;28;20185;-72
2023/06/17 09:59:00;;;;;;;36.47;31.65;;;;;;;23.32;100.00;101450.13;5065120;28;20245;-71
2023/06/17 10:01:30;;;;;;;32.58;29.13;;;;;;;23.94;100.00;101414.59;5065126;28;20208;-71
2023/06/17 10:03:59;;;;;;;30.40;27.17;;;;;;;24.41;100.00;101341.69;5069447;28;20713;-72
2023/06/17 10:06:34;;;;;;;31.02;26.85;;;;;;;24.65;100.00;101338.38;5065004;28;20199;-71
2023/06/17 10:09:04;;;;;;;30.98;27.60;;;;;;;24.80;100.00;101280.25;5068598;28;20202;-72
2023/06/17 10:11:31;;;;;;;41.03;36.53;;;;;;;24.84;100.00;101250.44;5059672;28;20193;-72
2023/06/17 10:14:01;;;;;;;45.75;34.90;;;;;;;24.51;100.00;101308.22;5066214;28;20236;-71
2023/06/17 10:16:31;;;;;;;32.65;27.92;;;;;;;24.32;100.00;101318.41;5061922;28;20197;-71
2023/06/17 10:19:01;;;;;;;31.55;26.85;;;;;;;24.49;100.00;101310.06;5071779;28;20690;-73
2023/06/17 10:21:29;;;;;;;31.25;27.92;;;;;;;24.62;100.00;101262.50;5068053;28;20193;-71
2023/06/17 10:23:57;;;;;;;32.13;28.55;;;;;;;24.03;100.00;101292.19;5060667;28;20314;-71
2023/06/17 10:26:23;;;;;;;30.10;27.08;;;;;;;24.93;100.00;101285.97;5061842;28;20193;-71
2023/06/17 10:28:55;;;;;;;30.48;26.33;;;;;;;25.77;100.00;101257.69;5062145;28;20216;-71
2023/06/17 10:31:25;;;;;;;28.88;25.83;;;;;;;25.96;100.00;101177.38;5064679;28;20189;-72
2023/06/17 10:33:55;;;;;;;34.55;30.80;;;;;;;24.17;100.00;101310.97;5062755;28;20686;-71
2023/06/17 10:36:21;;;;;;;34.35;30.45;;;;;;;24.31;100.00;101310.59;5067648;28;20556;-71
2023/06/17 10:39:04;;;;;;;34.22;28.55;;;;;;;25.33;100.00;101253.13;5061637;28;20707;-72
2023/06/17 10:41:42;;;;;;;31.20;27.73;;;;;;;25.17;100.00;101232.69;5061115;28;20819;-71
2023/06/17 10:44:19;;;;;;;30.90;27.50;;;;;;;25.33;100.00;101208.53;5046781;28;20216;-72
2023/06/17 10:46:46;;;;;;;32.08;28.20;;;;;;;24.54;100.00;101246.13;5064691;28;20262;-72
2023/06/17 10:49:15;;;;;;;34.83;30.80;;;;;;;24.18;100.00;101299.59;5067646;28;20242;-71
2023/06/17 10:51:48;;;;;;;33.53;29.17;;;;;;;24.12;100.00;101330.34;5065896;28;20278;-71
2023/06/17 10:54:13;;;;;;;30.00;26.42;;;;;;;25.56;100.00;101270.72;5080236;28;20247;-71
2023/06/17 10:56:55;;;;;;;30.25;26.52;;;;;;;26.02;100.00;101197.28;5061786;28;20198;-71
2023/06/17 10:59:28;;;;;;;33.03;25.77;;;;;;;26.10;94.44;101156.69;5065404;28;20212;-72
2023/06/17 11:02:07;;;;;;;28.17;25.33;;;;;;;26.10;93.39;101154.06;5068210;28;20822;-71